createdAt,value
2023-01-23T00:00:04.723Z,5.43
2023-01-23T00:02:33.988Z,7.33
2023-01-23T00:05:01.824Z,11.00
2023-01-23T00:07:29.758Z,14.87
2023-01-23T00:09:57.663Z,8.87
2023-01-23T00:12:25.687Z,7.17
2023-01-23T00:14:53.541Z,7.23
2023-01-23T00:17:21.428Z,6.97
2023-01-23T00:19:50.681Z,6.47
2023-01-23T00:22:18.625Z,9.90
2023-01-23T00:24:46.551Z,8.47
2023-01-23T00:27:14.414Z,5.40
2023-01-23T00:29:42.272Z,8.57
2023-01-23T00:32:10.141Z,7.73
2023-01-23T00:34:38.763Z,7.10
2023-01-23T00:37:08.091Z,8.90
2023-01-23T00:39:36.206Z,8.63
2023-01-23T00:42:04.111Z,10.50
2023-01-23T00:44:32.052Z,13.10
2023-01-23T00:46:59.881Z,9.60
2023-01-23T00:49:27.747Z,8.07
2023-01-23T00:51:56.482Z,12.33
2023-01-23T00:54:26.346Z,9.37
2023-01-23T00:56:54.228Z,9.83
2023-01-23T00:59:22.123Z,7.53
2023-01-23T01:01:50.069Z,7.27
2023-01-23T01:04:17.981Z,6.70
2023-01-23T01:06:45.878Z,6.00
2023-01-23T01:09:13.762Z,7.10
2023-01-23T01:11:42.984Z,7.03
2023-01-23T01:14:10.831Z,8.30
2023-01-23T01:16:40.903Z,7.67
2023-01-23T01:19:08.787Z,8.63
2023-01-23T01:21:37.011Z,9.17
2023-01-23T01:24:05.053Z,13.43
2023-01-23T01:26:32.945Z,10.00
2023-01-23T01:29:02.234Z,10.57
2023-01-23T01:31:30.178Z,6.47
2023-01-23T01:33:58.079Z,7.87
2023-01-23T01:36:27.083Z,7.50
2023-01-23T01:38:54.943Z,8.07
2023-01-23T01:41:22.823Z,6.43
2023-01-23T01:43:51.202Z,13.13
2023-01-23T01:46:22.124Z,9.53
2023-01-23T01:48:53.605Z,7.13
2023-01-23T01:51:26.070Z,7.43
2023-01-23T01:53:58.169Z,7.40
2023-01-23T01:56:26.035Z,7.57
2023-01-23T01:58:53.900Z,7.37
2023-01-23T02:01:23.185Z,7.67
2023-01-23T02:03:51.247Z,9.17
2023-01-23T02:06:19.362Z,8.43
2023-01-23T02:08:50.305Z,8.17
2023-01-23T02:11:18.608Z,8.63
2023-01-23T02:13:46.486Z,6.13
2023-01-23T02:16:15.486Z,11.20
2023-01-23T02:18:47.256Z,5.87
2023-01-23T02:21:15.873Z,7.63
2023-01-23T02:23:49.002Z,12.43
2023-01-23T02:26:19.588Z,9.93
2023-01-23T02:28:48.295Z,11.23
2023-01-23T02:31:16.299Z,8.63
2023-01-23T02:33:46.617Z,10.70
2023-01-23T02:36:14.560Z,5.97
2023-01-23T02:38:46.612Z,9.13
2023-01-23T02:41:14.467Z,8.47
2023-01-23T02:43:43.776Z,7.37
2023-01-23T02:46:12.523Z,9.73
2023-01-23T02:48:41.085Z,6.27
2023-01-23T02:51:09.013Z,8.00
2023-01-23T02:53:36.932Z,11.87
2023-01-23T02:56:05.009Z,10.17
2023-01-23T02:58:50.194Z,7.37
2023-01-23T03:01:19.542Z,7.10
2023-01-23T03:03:47.434Z,9.20
2023-01-23T03:06:15.361Z,10.03
2023-01-23T03:08:47.774Z,7.33
2023-01-23T03:11:16.409Z,7.80
2023-01-23T03:13:45.005Z,6.60
2023-01-23T03:16:13.094Z,7.57
2023-01-23T03:18:53.564Z,9.60
2023-01-23T03:21:22.313Z,6.83
2023-01-23T03:23:50.344Z,6.50
2023-01-23T03:26:18.209Z,15.47
2023-01-23T03:29:03.637Z,7.73
2023-01-23T03:31:31.558Z,8.53
2023-01-23T03:34:00.996Z,8.43
2023-01-23T03:36:28.989Z,8.77
2023-01-23T03:39:14.500Z,7.87
2023-01-23T03:41:45.733Z,7.77
2023-01-23T03:44:13.900Z,8.37
2023-01-23T03:46:41.793Z,5.37
2023-01-23T03:49:11.063Z,8.47
2023-01-23T03:51:38.962Z,7.80
2023-01-23T03:54:06.938Z,9.87
2023-01-23T03:56:34.835Z,7.30
2023-01-23T03:59:02.691Z,8.23
2023-01-23T04:01:30.581Z,8.43
2023-01-23T04:03:58.453Z,6.97
2023-01-23T04:06:28.652Z,10.30
2023-01-23T04:08:57.229Z,7.30
2023-01-23T04:11:26.438Z,6.77
2023-01-23T04:13:54.404Z,10.57
2023-01-23T04:16:22.812Z,9.57
2023-01-23T04:18:50.753Z,9.17
2023-01-23T04:21:18.718Z,9.17
2023-01-23T04:23:47.934Z,9.47
2023-01-23T04:26:15.841Z,7.53
2023-01-23T04:28:43.740Z,7.83
2023-01-23T04:31:11.703Z,10.77
2023-01-23T04:33:39.647Z,10.90
2023-01-23T04:36:08.499Z,11.70
2023-01-23T04:38:36.343Z,8.07
2023-01-23T04:41:05.888Z,9.07
2023-01-23T04:43:33.784Z,12.37
2023-01-23T04:46:01.723Z,9.07
2023-01-23T04:48:29.587Z,8.70
2023-01-23T04:50:57.511Z,10.87
2023-01-23T04:53:25.481Z,11.40
2023-01-23T04:55:53.367Z,9.53
2023-01-23T04:58:22.656Z,10.27
2023-01-23T05:00:50.568Z,11.60
2023-01-23T05:03:18.506Z,10.73
2023-01-23T05:05:46.983Z,7.03
2023-01-23T05:08:14.935Z,9.27
2023-01-23T05:10:42.795Z,14.00
2023-01-23T05:13:10.760Z,9.00
2023-01-23T05:15:40.046Z,9.23
2023-01-23T05:18:07.923Z,13.33
2023-01-23T05:20:35.818Z,7.97
2023-01-23T05:23:03.719Z,10.77
2023-01-23T05:25:31.573Z,12.33
2023-01-23T05:27:59.947Z,10.83
2023-01-23T05:30:27.857Z,8.70
2023-01-23T05:32:57.136Z,9.67
2023-01-23T05:35:25.035Z,10.30
2023-01-23T05:37:52.910Z,10.53
2023-01-23T05:40:21.965Z,10.90
2023-01-23T05:42:50.050Z,12.83
2023-01-23T05:45:18.099Z,9.90
2023-01-23T05:47:46.063Z,7.27
2023-01-23T05:50:17.121Z,12.67
2023-01-23T05:52:45.102Z,9.90
2023-01-23T05:55:13.125Z,11.73
2023-01-23T05:57:40.981Z,11.47
2023-01-23T06:00:09.945Z,10.23
2023-01-23T06:02:37.874Z,8.97
2023-01-23T06:05:06.520Z,9.33
2023-01-23T06:07:35.782Z,12.50
2023-01-23T06:10:03.626Z,10.67
2023-01-23T06:12:31.508Z,12.77
2023-01-23T06:14:59.343Z,9.80
2023-01-23T06:17:27.262Z,13.40
2023-01-23T06:19:55.149Z,9.97
2023-01-23T06:22:23.322Z,9.53
2023-01-23T06:24:53.508Z,9.93
2023-01-23T06:27:21.405Z,9.87
2023-01-23T06:29:49.419Z,14.43
2023-01-23T06:32:17.340Z,10.20
2023-01-23T06:34:45.224Z,10.00
2023-01-23T06:37:13.069Z,10.97
2023-01-23T06:39:41.140Z,10.10
2023-01-23T06:42:10.862Z,8.20
2023-01-23T06:44:38.773Z,10.57
2023-01-23T06:47:06.692Z,11.07
2023-01-23T06:49:34.808Z,10.90
2023-01-23T06:52:02.688Z,14.17
2023-01-23T06:54:30.556Z,12.20
2023-01-23T06:56:58.445Z,15.90
2023-01-23T06:59:27.716Z,11.10
2023-01-23T07:01:55.687Z,10.20
2023-01-23T07:04:23.669Z,15.00
2023-01-23T07:06:51.624Z,11.17
2023-01-23T07:09:19.517Z,13.07
2023-01-23T07:11:47.472Z,12.73
2023-01-23T07:14:15.325Z,12.47
2023-01-23T07:16:44.562Z,14.07
2023-01-23T07:19:12.634Z,12.67
2023-01-23T07:21:40.553Z,13.07
2023-01-23T07:24:08.596Z,16.33
2023-01-23T07:26:36.509Z,12.47
2023-01-23T07:29:04.980Z,15.17
2023-01-23T07:31:32.878Z,12.80
2023-01-23T07:34:02.777Z,13.27
2023-01-23T07:36:30.748Z,12.87
2023-01-23T07:38:59.405Z,13.13
2023-01-23T07:41:27.333Z,16.43
2023-01-23T07:43:55.255Z,13.27
2023-01-23T07:46:23.817Z,12.43
2023-01-23T07:48:51.792Z,14.27
2023-01-23T07:51:21.988Z,12.57
2023-01-23T07:53:49.892Z,13.33
2023-01-23T07:56:17.743Z,21.07
2023-01-23T07:58:45.599Z,14.93
2023-01-23T08:01:13.563Z,13.50
2023-01-23T08:03:41.525Z,15.50
2023-01-23T08:06:09.609Z,17.03
2023-01-23T08:08:38.986Z,17.17
2023-01-23T08:11:07.256Z,16.33
2023-01-23T08:13:35.123Z,18.50
2023-01-23T08:16:03.053Z,19.43
2023-01-23T08:18:31.175Z,18.43
2023-01-23T08:20:59.681Z,14.23
2023-01-23T08:23:27.770Z,13.93
2023-01-23T08:25:57.443Z,14.43
2023-01-23T08:28:25.512Z,16.03
2023-01-23T08:30:53.498Z,15.43
2023-01-23T08:33:21.802Z,17.50
2023-01-23T08:35:50.669Z,17.77
2023-01-23T08:38:19.341Z,17.57
2023-01-23T08:40:49.781Z,19.33
2023-01-23T08:43:19.632Z,19.77
2023-01-23T08:45:50.108Z,14.80
2023-01-23T08:48:18.115Z,18.67
2023-01-23T08:50:46.162Z,14.77
2023-01-23T08:53:14.216Z,15.27
2023-01-23T08:55:42.382Z,14.60
2023-01-23T08:58:13.190Z,16.60
2023-01-23T09:00:42.892Z,17.70
2023-01-23T09:03:11.548Z,17.10
2023-01-23T09:05:39.621Z,17.80
2023-01-23T09:08:07.530Z,16.60
2023-01-23T09:10:36.408Z,14.80
2023-01-23T09:13:04.352Z,20.90
2023-01-23T09:15:32.465Z,17.63
2023-01-23T09:18:01.730Z,22.23
2023-01-23T09:20:29.691Z,19.77
2023-01-23T09:22:57.608Z,20.57
2023-01-23T09:25:25.463Z,22.33
2023-01-23T09:27:53.342Z,17.20
2023-01-23T09:30:21.762Z,17.33
2023-01-23T09:32:49.892Z,18.17
2023-01-23T09:35:19.178Z,24.70
2023-01-23T09:38:02.339Z,16.07
2023-01-23T09:40:31.652Z,17.43
2023-01-23T09:43:01.579Z,15.20
2023-01-23T09:45:29.462Z,14.20
2023-01-23T09:48:00.297Z,15.90
2023-01-23T09:50:30.775Z,20.30
2023-01-23T09:53:00.916Z,19.17
2023-01-23T09:55:34.799Z,19.90
2023-01-23T09:58:03.518Z,20.80
2023-01-23T10:00:32.138Z,20.07
2023-01-23T10:03:01.260Z,17.40
2023-01-23T10:05:32.999Z,20.50
2023-01-23T10:08:06.626Z,17.03
2023-01-23T10:10:44.336Z,19.77
2023-01-23T10:13:16.510Z,18.13
2023-01-23T10:16:01.442Z,16.90
2023-01-23T10:18:31.736Z,16.03
2023-01-23T10:21:07.039Z,17.17
2023-01-23T10:23:43.071Z,21.57
2023-01-23T10:26:14.202Z,20.27
2023-01-23T10:28:42.134Z,16.07
2023-01-23T10:31:12.464Z,17.27
2023-01-23T10:33:43.466Z,17.47
2023-01-23T10:36:23.621Z,16.70
2023-01-23T10:38:57.943Z,19.93
2023-01-23T10:41:25.947Z,18.77
2023-01-23T10:43:54.919Z,17.00
2023-01-23T10:46:23.997Z,20.47
2023-01-23T10:48:52.240Z,22.13
2023-01-23T10:51:35.451Z,18.13
2023-01-23T10:54:08.481Z,20.10
2023-01-23T10:56:37.618Z,24.03
2023-01-23T10:59:06.528Z,20.13
2023-01-23T11:01:35.248Z,22.33
2023-01-23T11:04:11.327Z,20.93
2023-01-23T11:06:40.611Z,21.63
2023-01-23T11:09:19.852Z,15.47
2023-01-23T11:12:05.635Z,18.30
2023-01-23T11:14:33.608Z,15.37
2023-01-23T11:17:06.897Z,20.60
2023-01-23T11:19:34.812Z,18.30
2023-01-23T11:22:04.144Z,16.20
2023-01-23T11:24:40.170Z,15.00
2023-01-23T11:27:18.536Z,17.13
2023-01-23T11:29:55.055Z,16.53
2023-01-23T11:32:23.097Z,14.83
2023-01-23T11:34:53.033Z,17.97
2023-01-23T11:37:23.777Z,19.23
2023-01-23T11:39:54.057Z,17.47
2023-01-23T11:42:21.970Z,14.63
2023-01-23T11:44:51.232Z,14.03
2023-01-23T11:47:32.858Z,15.83
2023-01-23T11:50:30.144Z,18.57
2023-01-23T11:53:03.505Z,15.00
2023-01-23T11:55:53.361Z,15.63
2023-01-23T11:58:49.040Z,22.33
2023-01-23T12:01:20.201Z,17.60
2023-01-23T12:04:29.582Z,17.93
2023-01-23T12:07:21.669Z,14.80
2023-01-23T12:09:56.317Z,15.43
2023-01-23T12:12:30.490Z,15.03
2023-01-23T12:15:07.358Z,14.03
2023-01-23T12:17:40.397Z,17.80
2023-01-23T12:20:32.461Z,24.53
2023-01-23T12:23:16.745Z,17.77
2023-01-23T12:25:48.072Z,13.60
2023-01-23T12:28:25.055Z,16.73
2023-01-23T12:31:22.176Z,19.27
2023-01-23T12:33:57.501Z,16.13
2023-01-23T12:36:59.515Z,19.57
2023-01-23T12:39:53.403Z,18.73
2023-01-23T12:42:23.319Z,18.30
2023-01-23T12:44:57.477Z,26.87
2023-01-23T12:47:26.434Z,24.20
2023-01-23T12:49:56.630Z,22.20
2023-01-23T12:52:25.789Z,18.73
2023-01-23T12:54:57.039Z,22.33
2023-01-23T13:00:26.728Z,31.13
2023-01-23T13:02:58.334Z,20.93
2023-01-23T13:05:28.692Z,22.60
2023-01-23T13:07:58.080Z,20.20
2023-01-23T13:10:51.296Z,29.77
2023-01-23T13:13:19.315Z,28.73
2023-01-23T13:16:02.695Z,24.87
2023-01-23T13:18:50.599Z,26.17
2023-01-23T13:21:35.763Z,26.53
2023-01-23T13:24:38.392Z,24.87
2023-01-23T13:27:36.814Z,22.53
2023-01-23T13:30:06.672Z,24.23
2023-01-23T13:32:35.997Z,22.23
2023-01-23T13:35:03.921Z,21.23
2023-01-23T13:37:51.437Z,23.93
2023-01-23T13:40:21.614Z,31.33
2023-01-23T13:42:49.512Z,31.03
2023-01-23T13:45:27.056Z,31.03
2023-01-23T14:22:21.910Z,26.70
2023-01-23T14:24:52.194Z,27.47
2023-01-23T14:27:21.970Z,23.43
2023-01-23T14:29:57.341Z,18.63
2023-01-23T14:32:25.358Z,21.40
2023-01-23T14:34:53.282Z,23.73
2023-01-23T14:37:21.158Z,21.40
2023-01-23T14:39:53.056Z,26.87
2023-01-23T14:42:24.522Z,25.00
2023-01-23T14:44:52.401Z,28.20
2023-01-23T14:47:24.567Z,23.87
2023-01-23T14:49:52.932Z,24.57
2023-01-23T14:52:23.311Z,26.83
2023-01-23T14:54:54.175Z,28.93
2023-01-23T14:57:24.912Z,25.67
2023-01-23T14:59:54.323Z,28.47
2023-01-23T15:02:27.206Z,28.47
2023-01-23T15:05:11.777Z,26.53
2023-01-23T15:07:44.073Z,26.67
2023-01-23T15:10:16.116Z,31.00
2023-01-23T15:12:51.479Z,26.50
2023-01-23T15:15:22.991Z,25.67
2023-01-23T15:17:51.231Z,24.73
2023-01-23T15:20:35.510Z,24.63
2023-01-23T15:23:28.443Z,28.43
2023-01-23T15:26:13.636Z,23.93
2023-01-23T15:28:49.316Z,24.47
2023-01-23T15:31:27.952Z,27.30
2023-01-23T15:33:55.932Z,27.13
2023-01-23T15:36:27.975Z,27.20
2023-01-23T15:38:56.201Z,27.90
2023-01-23T15:41:39.403Z,27.77
2023-01-23T15:44:14.094Z,27.40
2023-01-23T15:46:42.143Z,26.57
2023-01-23T15:49:23.637Z,27.33
2023-01-23T15:51:53.127Z,26.37
2023-01-23T15:54:26.032Z,26.90
2023-01-23T15:57:06.639Z,29.67
2023-01-23T15:59:36.709Z,25.63
2023-01-23T16:02:04.710Z,28.13
2023-01-23T16:04:32.614Z,26.13
2023-01-23T16:07:01.258Z,39.13
2023-01-23T16:09:30.847Z,37.63
2023-01-23T16:11:58.902Z,36.87
2023-01-23T16:14:26.827Z,28.03
2023-01-23T16:16:58.234Z,31.50
2023-01-23T16:19:32.534Z,35.00
2023-01-23T16:22:05.306Z,35.00
2023-01-23T16:24:35.121Z,33.87
2023-01-23T16:27:03.139Z,27.00
2023-01-23T16:29:31.742Z,44.17
2023-01-23T16:32:01.925Z,39.77
2023-01-23T16:34:29.933Z,53.03
2023-01-23T16:36:58.390Z,50.93
2023-01-23T16:39:27.839Z,51.47
2023-01-23T16:41:55.959Z,43.10
2023-01-23T16:44:24.851Z,32.63
2023-01-23T16:46:53.322Z,32.13
2023-01-23T16:49:22.589Z,25.80
2023-01-23T16:51:55.687Z,24.57
2023-01-23T16:54:23.595Z,25.13
2023-01-23T16:56:52.812Z,26.77
2023-01-23T16:59:21.987Z,27.20
2023-01-23T17:01:51.025Z,26.47
2023-01-23T17:04:20.275Z,32.43
2023-01-23T17:06:49.862Z,27.17
2023-01-23T17:09:17.888Z,29.77
2023-01-23T17:11:46.939Z,31.53
2023-01-23T17:14:16.554Z,34.03
2023-01-23T17:16:44.533Z,33.63
2023-01-23T17:19:27.866Z,30.70
2023-01-23T17:21:57.288Z,26.87
2023-01-23T17:24:25.127Z,33.77
2023-01-23T17:26:53.003Z,40.43
2023-01-23T17:29:21.021Z,68.73
2023-01-23T17:31:49.121Z,51.47
2023-01-23T17:34:21.125Z,36.00
2023-01-23T17:36:49.016Z,43.20
2023-01-23T17:39:19.465Z,33.70
2023-01-23T17:41:48.419Z,38.67
2023-01-23T17:44:16.316Z,39.23
2023-01-23T17:46:44.494Z,44.97
2023-01-23T17:49:25.509Z,45.47
2023-01-23T17:51:53.463Z,41.47
2023-01-23T17:54:22.776Z,40.23
2023-01-23T17:56:50.698Z,39.47
2023-01-23T17:59:18.654Z,43.63
2023-01-23T18:01:47.690Z,54.83
2023-01-23T18:04:16.758Z,62.37
2023-01-23T18:06:44.700Z,58.70
2023-01-23T18:09:12.579Z,52.77
2023-01-23T18:11:43.392Z,51.63
2023-01-23T18:14:26.634Z,62.13
2023-01-23T18:16:55.528Z,57.27
2023-01-23T18:19:24.487Z,51.33
2023-01-23T18:21:53.849Z,51.87
2023-01-23T18:24:26.419Z,58.70
2023-01-23T18:27:00.462Z,48.43
2023-01-23T18:29:35.300Z,49.20
2023-01-23T18:32:15.136Z,49.80
2023-01-23T18:34:44.887Z,47.40
2023-01-23T18:37:17.328Z,50.17
2023-01-23T18:40:05.675Z,50.90
2023-01-23T18:42:38.392Z,66.23
2023-01-23T18:45:10.396Z,74.80
2023-01-23T18:47:38.876Z,64.10
2023-01-23T18:50:08.409Z,69.57
2023-01-23T18:52:45.797Z,70.10
2023-01-23T18:55:18.725Z,65.90
2023-01-23T18:58:09.880Z,55.27
2023-01-23T19:00:40.866Z,48.97
2023-01-23T19:03:13.367Z,50.13
2023-01-23T19:05:41.423Z,49.57
2023-01-23T19:08:15.859Z,49.10
2023-01-23T19:10:48.580Z,48.30
2023-01-23T19:13:21.396Z,53.70
2023-01-23T19:15:56.820Z,59.73
2023-01-23T19:18:48.920Z,87.07
2023-01-23T19:21:20.615Z,75.20
2023-01-23T19:23:54.454Z,84.73
2023-01-23T19:26:22.881Z,69.33
2023-01-23T19:28:52.763Z,55.63
2023-01-23T19:31:22.530Z,53.73
2023-01-23T19:33:50.875Z,52.83
2023-01-23T19:36:18.877Z,53.70
2023-01-23T19:38:46.909Z,55.43
2023-01-23T19:41:19.685Z,55.67
2023-01-23T19:43:49.267Z,57.60
2023-01-23T19:46:18.767Z,58.87
2023-01-23T19:48:47.035Z,59.70
2023-01-23T19:51:16.540Z,65.23
2023-01-23T19:53:44.490Z,64.60
2023-01-23T19:56:12.795Z,59.63
2023-01-23T19:58:41.450Z,55.47
2023-01-23T20:01:18.925Z,61.63
2023-01-23T20:03:46.881Z,53.33
2023-01-23T20:06:14.796Z,49.73
2023-01-23T20:08:42.613Z,47.57
2023-01-23T20:11:11.212Z,54.30
2023-01-23T20:13:40.858Z,54.90
2023-01-23T20:16:10.185Z,52.93
2023-01-23T20:18:39.487Z,49.67
2023-01-23T20:21:07.401Z,52.77
2023-01-23T20:23:35.289Z,56.93
2023-01-23T20:26:03.776Z,53.20
2023-01-23T20:28:31.678Z,61.43
2023-01-23T20:31:04.732Z,53.73
2023-01-23T20:33:32.645Z,68.90
2023-01-23T20:36:01.939Z,71.33
2023-01-23T20:38:29.873Z,78.60
2023-01-23T20:41:03.555Z,56.47
2023-01-23T20:43:31.453Z,59.47
2023-01-23T20:45:59.407Z,56.30
2023-01-23T20:48:27.291Z,53.97
2023-01-23T20:50:56.066Z,53.40
2023-01-23T20:53:30.155Z,50.60
2023-01-23T20:55:58.629Z,55.40
2023-01-23T20:58:44.049Z,47.23
2023-01-23T21:01:12.155Z,47.83
2023-01-23T21:03:40.619Z,45.33
2023-01-23T21:06:08.706Z,43.63
2023-01-23T21:08:37.944Z,52.83
2023-01-23T21:11:07.138Z,50.13
2023-01-23T21:13:35.327Z,53.50
2023-01-23T21:16:04.594Z,47.90
2023-01-23T21:18:32.637Z,46.70
2023-01-23T21:21:04.185Z,47.67
2023-01-23T21:23:32.083Z,50.80
2023-01-23T21:26:01.595Z,56.17
2023-01-23T21:28:30.052Z,56.10
2023-01-23T21:30:58.056Z,68.37
2023-01-23T21:33:26.212Z,60.20
2023-01-23T21:35:54.860Z,49.40
2023-01-23T21:38:22.954Z,35.33
2023-01-23T21:40:51.778Z,41.87
2023-01-23T21:43:21.101Z,38.00
2023-01-23T21:45:49.131Z,37.90
2023-01-23T21:48:16.979Z,39.20
2023-01-23T21:50:44.828Z,36.50
2023-01-23T21:53:12.752Z,32.43
2023-01-23T21:55:40.615Z,35.93
2023-01-23T21:58:08.505Z,36.43
2023-01-23T22:00:55.031Z,36.80
2023-01-23T22:03:23.317Z,40.63
2023-01-23T22:05:51.239Z,43.10
2023-01-23T22:08:19.337Z,43.23
2023-01-23T22:10:47.220Z,47.17
2023-01-23T22:13:15.140Z,42.93
2023-01-23T22:15:44.466Z,42.30
2023-01-23T22:18:12.421Z,41.60
2023-01-23T22:20:40.278Z,37.03
2023-01-23T22:23:08.166Z,40.17
2023-01-23T22:25:36.080Z,44.10
2023-01-23T22:28:03.982Z,44.37
2023-01-23T22:30:31.877Z,44.43
2023-01-23T22:33:01.223Z,49.53
2023-01-23T22:35:29.116Z,48.33
2023-01-23T22:37:57.010Z,47.70
2023-01-23T22:40:24.929Z,51.00
2023-01-23T22:42:52.819Z,52.60
2023-01-23T22:45:21.020Z,43.90
2023-01-23T22:47:49.005Z,42.43
2023-01-23T22:50:18.766Z,45.77
2023-01-23T22:52:46.769Z,38.77
2023-01-23T22:55:15.562Z,42.43
2023-01-23T22:57:43.591Z,36.77
2023-01-23T23:00:13.404Z,40.53
2023-01-23T23:02:41.296Z,40.00
2023-01-23T23:05:09.605Z,39.97
2023-01-23T23:07:38.872Z,42.53
2023-01-23T23:10:07.388Z,37.40
2023-01-23T23:12:35.335Z,37.13
2023-01-23T23:15:03.878Z,40.87
2023-01-23T23:17:31.878Z,40.23
2023-01-23T23:19:59.848Z,39.23
2023-01-23T23:22:27.741Z,37.97
2023-01-23T23:24:56.982Z,35.53
2023-01-23T23:27:24.920Z,40.20
2023-01-23T23:29:52.783Z,40.70
2023-01-23T23:32:20.930Z,39.77
2023-01-23T23:34:48.924Z,41.53
2023-01-23T23:37:16.783Z,43.80
2023-01-23T23:39:44.735Z,46.73
2023-01-23T23:42:13.976Z,47.77
2023-01-23T23:44:42.458Z,48.47
2023-01-23T23:47:10.279Z,40.23
2023-01-23T23:49:38.183Z,39.13
2023-01-23T23:52:06.104Z,40.07
2023-01-23T23:54:33.969Z,39.37
2023-01-23T23:57:01.865Z,43.53
2023-01-23T23:59:31.238Z,39.70
